Jj Sky — VRJA6 — position and weather

sailwx.info

Track history (hours):
 
Tides and Currents Weather Stations Pressure Air Temp Water Temp Dewpoint Dewpoint Depression Visibility Wind Speed Wind Dir Waves Ship Positions

Jj Sky

Last reported at 2018-Apr-19 08:52 UTC. Time now 2018-Apr-20 14:36 UTC.
Position N 34°52' E 139°21'.

Length 148 m; draft 7.4 m.

Type: Ship (hazmat cat D). MMSI: 477397500.

Date/timePositionNaut miles runAvg speedWind from/ knotsBaromVisibWave heightAir tempDewpointWater temp
2018-Apr-19 08:52N 34°52' E 139°21'613.0
2018-Apr-19 08:23N 34°56' E 139°28'513.6
2018-Apr-19 08:00N 34°59' E 139°33'714.5
2018-Apr-19 07:31N 35°04' E 139°39'815.3
2018-Apr-19 07:00N 35°10' E 139°45'613.1
2018-Apr-19 06:30N 35°16' E 139°45'613.0
2018-Apr-19 06:01N 35°22' E 139°42'510.9
2018-Apr-19 05:30N 35°28' E 139°42'1 1.2
2018-Apr-19 04:59N 35°27' E 139°41'0 0.0
2018-Apr-19 04:28N 35°27' E 139°41'0 0.0
2018-Apr-19 03:58N 35°27' E 139°41'0 0.0
2018-Apr-19 03:28N 35°27' E 139°41'0 0.0
2018-Apr-19 02:58N 35°27' E 139°41'0 0.0
2018-Apr-19 02:31N 35°27' E 139°41'0 0.0
2018-Apr-19 02:00N 35°27' E 139°41'0 0.0
2018-Apr-19 01:30N 35°27' E 139°41'0 0.0
2018-Apr-19 01:00N 35°27' E 139°41'0 0.0
2018-Apr-19 00:30N 35°27' E 139°41'0 0.0
2018-Apr-18 23:59N 35°27' E 139°41'0 0.0
2018-Apr-18 23:29N 35°27' E 139°41'0 0.0
2018-Apr-18 22:59N 35°27' E 139°41'0 0.2
2018-Apr-18 22:30N 35°28' E 139°42'2 5.0
2018-Apr-18 22:00N 35°27' E 139°44'5 9.4
2018-Apr-18 21:30N 35°29' E 139°50'5 9.5
2018-Apr-18 20:59N 35°34' E 139°49'3 6.9
2018-Apr-18 20:30N 35°36' E 139°47'0 0.1
2018-Apr-18 20:00N 35°36' E 139°47'0 0.0
2018-Apr-18 19:25N 35°36' E 139°47'0 0.0
2018-Apr-18 18:55N 35°36' E 139°47'0 0.0
2018-Apr-18 18:24N 35°36' E 139°47'0 0.0
2018-Apr-18 18:00N 35°36' E 139°47'0 0.0
2018-Apr-18 17:24N 35°36' E 139°47'0 0.0
2018-Apr-18 16:57N 35°36' E 139°47'0 0.0
2018-Apr-18 16:15N 35°36' E 139°47'0 0.2
2018-Apr-18 15:57N 35°36' E 139°47'0 0.1
2018-Apr-18 15:30N 35°36' E 139°47'0 0.0
2018-Apr-18 14:59N 35°36' E 139°47'0 0.1
2018-Apr-18 14:28N 35°36' E 139°47'0 0.0
2018-Apr-18 13:55N 35°36' E 139°47'0 0.0
2018-Apr-18 13:28N 35°36' E 139°47'0 0.0
2018-Apr-18 12:58N 35°36' E 139°47'0 0.0
2018-Apr-18 12:12N 35°36' E 139°47'0 0.0
2018-Apr-18 11:54N 35°36' E 139°47'0 0.0
2018-Apr-18 11:30N 35°36' E 139°47'0 0.0
2018-Apr-18 11:00N 35°36' E 139°47'0 0.0
2018-Apr-18 10:30N 35°36' E 139°47'0 0.0
2018-Apr-18 09:59N 35°36' E 139°47'0 0.1
2018-Apr-18 09:29N 35°36' E 139°47'0 0.1
2018-Apr-18 08:59N 35°36' E 139°47'0 0.0
2018-Apr-18 08:23N 35°36' E 139°47'0 0.0
2018-Apr-18 07:58N 35°36' E 139°47'0 0.0
2018-Apr-18 07:28N 35°36' E 139°47'0 0.0
2018-Apr-18 06:58N 35°36' E 139°47'0 0.0
2018-Apr-18 06:22N 35°36' E 139°47'0 0.0
2018-Apr-18 05:52N 35°36' E 139°47'0 0.0
2018-Apr-18 05:30N 35°36' E 139°47'0 0.1
2018-Apr-18 05:00N 35°36' E 139°47'0 0.0
2018-Apr-18 04:12N 35°36' E 139°47'0 0.0
2018-Apr-18 03:43N 35°36' E 139°47'0 0.0
2018-Apr-18 03:20N 35°36' E 139°47'0 0.2
2018-Apr-18 02:55N 35°36' E 139°47'0 0.1
2018-Apr-18 02:25N 35°36' E 139°47'0 0.0
2018-Apr-18 01:58N 35°36' E 139°47'0 0.1
2018-Apr-18 01:30N 35°36' E 139°47'4 7.2
2018-Apr-18 01:00N 35°34' E 139°50'612.2
2018-Apr-18 00:30N 35°28' E 139°50'713.9
2018-Apr-18 00:00N 35°22' E 139°45'611.9
2018-Apr-17 23:30N 35°16' E 139°46'612.8
2018-Apr-17 23:00N 35°10' E 139°45'714.2
2018-Apr-17 22:30N 35°04' E 139°40'814.9
2018-Apr-17 22:00N 34°59' E 139°33'714.8
2018-Apr-17 21:30N 34°54' E 139°27'714.2
2018-Apr-17 21:00N 34°49' E 139°20'1214.1
2018-Apr-17 20:11N 34°41' E 139°10'313.7
2018-Apr-17 19:56N 34°39' E 139°07'813.7
2018-Apr-17 19:19N 34°33' E 138°60'412.4
2018-Apr-17 19:00N 34°31' E 138°55'713.5
2018-Apr-17 18:30N 34°30' E 138°47'913.4
2018-Apr-17 17:51N 34°29' E 138°37'513.3
2018-Apr-17 17:30N 34°28' E 138°31'1913.5
2018-Apr-17 16:04N 34°26' E 138°08'213.8
2018-Apr-17 15:56N 34°25' E 138°06'  
2018-Apr-15 09:37N 31°04' E 122°57'215.3
2018-Apr-15 09:29N 31°05' E 122°55'2115.9
2018-Apr-15 08:09N 31°05' E 122°30'412.4
2018-Apr-15 07:52N 31°06' E 122°26'37 1.4
2018-Apr-14 06:01N 31°18' E 121°46'1 7.1
2018-Apr-14 05:51N 31°18' E 121°47'4 8.5
2018-Apr-14 05:23N 31°16' E 121°51'5 9.7
2018-Apr-14 04:50N 31°15' E 121°57'4 9.7
2018-Apr-14 04:23N 31°14' E 122°02'12 9.8
2018-Apr-14 03:13N 31°09' E 122°14'311.6
2018-Apr-14 03:00N 31°07' E 122°16'159 6.6
2018-Apr-13 02:57N 31°59' E 125°12'15015.7
2018-Apr-12 17:21N 32°59' E 127°56'615.5
2018-Apr-12 16:57N 33°02' E 128°03'1015.1
2018-Apr-12 16:17N 33°05' E 128°14'4415.4
2018-Apr-12 13:26N 33°22' E 129°02'1115.0
2018-Apr-12 12:41N 33°27' E 129°14'315.4
2018-Apr-12 12:30N 33°28' E 129°18'815.0
2018-Apr-12 11:59N 33°31' E 129°26'715.0
2018-Apr-12 11:30N 33°34' E 129°34'814.8
2018-Apr-12 11:00N 33°37' E 129°42'714.7
2018-Apr-12 10:30N 33°40' E 129°50'715.0
2018-Apr-12 10:00N 33°43' E 129°58'815.2
2018-Apr-12 09:28N 33°47' E 130°07'715.1
2018-Apr-12 09:00N 33°51' E 130°14'815.1
2018-Apr-12 08:30N 33°56' E 130°21'815.0
2018-Apr-12 08:00N 33°59' E 130°29'815.3
2018-Apr-12 07:30N 34°01' E 130°38'714.7
2018-Apr-12 07:00N 34°02' E 130°47'611.9
2018-Apr-12 06:30N 33°57' E 130°51'4 8.4
2018-Apr-12 06:00N 33°56' E 130°56'5 9.8
2018-Apr-12 05:30N 33°58' E 131°02'714.5
2018-Apr-12 05:00N 33°54' E 131°09'714.2
2018-Apr-12 04:31N 33°51' E 131°16'714.7
2018-Apr-12 04:00N 33°49' E 131°25'714.6
2018-Apr-12 03:31N 33°48' E 131°34'714.3
2018-Apr-12 03:00N 33°46' E 131°42'714.1
2018-Apr-12 02:30N 33°45' E 131°50'3214.9
2018-Apr-12 00:21N 33°52' E 132°28'815.0
2018-Apr-11 23:51N 33°55' E 132°37'713.7
2018-Apr-11 23:21N 33°59' E 132°43'7013.0
2018-Apr-11 17:57N 34°26' E 134°01'913.6
2018-Apr-11 17:16N 34°25' E 134°12'414.7
2018-Apr-11 17:00N 34°24' E 134°17'714.4
2018-Apr-11 16:31N 34°26' E 134°26'714.6
2018-Apr-11 16:00N 34°29' E 134°34'714.4
2018-Apr-11 15:30N 34°31' E 134°42'713.9
2018-Apr-11 15:00N 34°34' E 134°50'713.1
2018-Apr-11 14:30N 34°37' E 134°57'611.9
2018-Apr-11 14:00N 34°36' E 135°04'714.1
2018-Apr-11 13:30N 34°37' E 135°13'3 6.1
2018-Apr-11 13:00N 34°39' E 135°15'0 0.1
2018-Apr-11 12:25N 34°39' E 135°15'0 0.0
2018-Apr-11 12:01N 34°39' E 135°15'0 0.0
2018-Apr-11 11:30N 34°39' E 135°15'0 0.0
2018-Apr-11 11:00N 34°39' E 135°15'0 0.0
2018-Apr-11 10:30N 34°39' E 135°15'0 0.0
2018-Apr-11 10:00N 34°39' E 135°15'0 0.0
2018-Apr-11 09:29N 34°39' E 135°15'0 0.0
2018-Apr-11 08:59N 34°39' E 135°15'0 0.2
2018-Apr-11 08:30N 34°39' E 135°15'2 4.6
2018-Apr-11 08:00N 34°38' E 135°17'611.5
2018-Apr-11 07:30N 34°39' E 135°24'0 1.0
2018-Apr-11 07:00N 34°39' E 135°24'0 0.0
2018-Apr-11 06:24N 34°39' E 135°24'0 0.0
2018-Apr-11 05:57N 34°39' E 135°24'0 0.0
2018-Apr-11 05:30N 34°39' E 135°24'0 0.0
2018-Apr-11 05:00N 34°39' E 135°24'0 0.0
2018-Apr-11 04:26N 34°39' E 135°24'0 0.0
2018-Apr-11 03:59N 34°39' E 135°24'0 0.0
2018-Apr-11 03:29N 34°39' E 135°24'0 0.0
2018-Apr-11 02:59N 34°39' E 135°24'0 0.0
2018-Apr-11 02:28N 34°39' E 135°24'0 0.0
2018-Apr-11 01:58N 34°39' E 135°24'0 0.0
2018-Apr-11 01:28N 34°39' E 135°24'0 0.0
2018-Apr-11 00:58N 34°39' E 135°24'0 0.0
2018-Apr-11 00:28N 34°39' E 135°24'0 0.0
2018-Apr-11 00:00N 34°39' E 135°24'0 0.1
2018-Apr-10 23:30N 34°39' E 135°24'4 7.2
2018-Apr-10 23:00N 34°37' E 135°21'815.1
2018-Apr-10 22:30N 34°35' E 135°12'714.8
2018-Apr-10 22:01N 34°36' E 135°03'612.3
2018-Apr-10 21:30N 34°36' E 134°56'714.1
2018-Apr-10 21:00N 34°33' E 134°48'714.9
2018-Apr-10 20:30N 34°30' E 134°39'815.2
2018-Apr-10 20:01N 34°27' E 134°31'815.3
2018-Apr-10 19:30N 34°25' E 134°22'714.8
2018-Apr-10 19:00N 34°24' E 134°13'7313.3
2018-Apr-10 13:34N 34°04' E 132°49'215.5
2018-Apr-10 13:27N 34°02' E 132°48'715.5
2018-Apr-10 13:00N 33°57' E 132°42'815.5
2018-Apr-10 12:28N 33°53' E 132°34'715.6
2018-Apr-10 12:00N 33°51' E 132°25'916.0
2018-Apr-10 11:26N 33°50' E 132°14'815.4
2018-Apr-10 10:56N 33°47' E 132°06'715.8
2018-Apr-10 10:30N 33°45' E 131°58'815.6
2018-Apr-10 10:01N 33°45' E 131°48'816.0
2018-Apr-10 09:30N 33°46' E 131°39'815.8
2018-Apr-10 09:01N 33°48' E 131°30'815.4
2018-Apr-10 08:31N 33°50' E 131°21'814.9
2018-Apr-10 08:00N 33°51' E 131°12'714.9
2018-Apr-10 07:31N 33°56' E 131°05'612.3
2018-Apr-10 07:00N 33°58' E 130°57'4 8.8
2018-Apr-10 06:30N 33°55' E 130°53'713.5
2018-Apr-10 06:00N 34°01' E 130°49'714.3
2018-Apr-10 05:30N 34°02' E 130°41'815.8
2018-Apr-10 05:00N 33°59' E 130°32'816.3
2018-Apr-10 04:30N 33°56' E 130°23'816.2
2018-Apr-10 04:00N 33°52' E 130°14'816.3
2018-Apr-10 03:29N 33°47' E 130°06'816.4
2018-Apr-10 02:59N 33°43' E 129°57'  
Track history (hours):
 
Tides and Currents Weather Stations Pressure Air Temp Water Temp Dewpoint Dewpoint Depression Visibility Wind Speed Wind Dir Waves Ship Positions

Jj Sky

Last reported at 2018-Apr-19 08:52 UTC. Time now 2018-Apr-20 14:36 UTC.
Position N 34°52' E 139°21'.

Length 148 m; draft 7.4 m.

Type: Ship (hazmat cat D). MMSI: 477397500.

Date/timePositionNaut miles runAvg speedWind from/ knotsBaromVisibWave heightAir tempDewpointWater temp
2018-Apr-19 08:52N 34°52' E 139°21'613.0
2018-Apr-19 08:23N 34°56' E 139°28'513.6
2018-Apr-19 08:00N 34°59' E 139°33'714.5
2018-Apr-19 07:31N 35°04' E 139°39'815.3
2018-Apr-19 07:00N 35°10' E 139°45'613.1
2018-Apr-19 06:30N 35°16' E 139°45'613.0
2018-Apr-19 06:01N 35°22' E 139°42'510.9
2018-Apr-19 05:30N 35°28' E 139°42'1 1.2
2018-Apr-19 04:59N 35°27' E 139°41'0 0.0
2018-Apr-19 04:28N 35°27' E 139°41'0 0.0
2018-Apr-19 03:58N 35°27' E 139°41'0 0.0
2018-Apr-19 03:28N 35°27' E 139°41'0 0.0
2018-Apr-19 02:58N 35°27' E 139°41'0 0.0
2018-Apr-19 02:31N 35°27' E 139°41'0 0.0
2018-Apr-19 02:00N 35°27' E 139°41'0 0.0
2018-Apr-19 01:30N 35°27' E 139°41'0 0.0
2018-Apr-19 01:00N 35°27' E 139°41'0 0.0
2018-Apr-19 00:30N 35°27' E 139°41'0 0.0
2018-Apr-18 23:59N 35°27' E 139°41'0 0.0
2018-Apr-18 23:29N 35°27' E 139°41'0 0.0
2018-Apr-18 22:59N 35°27' E 139°41'0 0.2
2018-Apr-18 22:30N 35°28' E 139°42'2 5.0
2018-Apr-18 22:00N 35°27' E 139°44'5 9.4
2018-Apr-18 21:30N 35°29' E 139°50'5 9.5
2018-Apr-18 20:59N 35°34' E 139°49'3 6.9
2018-Apr-18 20:30N 35°36' E 139°47'0 0.1
2018-Apr-18 20:00N 35°36' E 139°47'0 0.0
2018-Apr-18 19:25N 35°36' E 139°47'0 0.0
2018-Apr-18 18:55N 35°36' E 139°47'0 0.0
2018-Apr-18 18:24N 35°36' E 139°47'0 0.0
2018-Apr-18 18:00N 35°36' E 139°47'0 0.0
2018-Apr-18 17:24N 35°36' E 139°47'0 0.0
2018-Apr-18 16:57N 35°36' E 139°47'0 0.0
2018-Apr-18 16:15N 35°36' E 139°47'0 0.2
2018-Apr-18 15:57N 35°36' E 139°47'0 0.1
2018-Apr-18 15:30N 35°36' E 139°47'0 0.0
2018-Apr-18 14:59N 35°36' E 139°47'0 0.1
2018-Apr-18 14:28N 35°36' E 139°47'0 0.0
2018-Apr-18 13:55N 35°36' E 139°47'0 0.0
2018-Apr-18 13:28N 35°36' E 139°47'0 0.0
2018-Apr-18 12:58N 35°36' E 139°47'0 0.0
2018-Apr-18 12:12N 35°36' E 139°47'0 0.0
2018-Apr-18 11:54N 35°36' E 139°47'0 0.0
2018-Apr-18 11:30N 35°36' E 139°47'0 0.0
2018-Apr-18 11:00N 35°36' E 139°47'0 0.0
2018-Apr-18 10:30N 35°36' E 139°47'0 0.0
2018-Apr-18 09:59N 35°36' E 139°47'0 0.1
2018-Apr-18 09:29N 35°36' E 139°47'0 0.1
2018-Apr-18 08:59N 35°36' E 139°47'0 0.0
2018-Apr-18 08:23N 35°36' E 139°47'0 0.0
2018-Apr-18 07:58N 35°36' E 139°47'0 0.0
2018-Apr-18 07:28N 35°36' E 139°47'0 0.0
2018-Apr-18 06:58N 35°36' E 139°47'0 0.0
2018-Apr-18 06:22N 35°36' E 139°47'0 0.0
2018-Apr-18 05:52N 35°36' E 139°47'0 0.0
2018-Apr-18 05:30N 35°36' E 139°47'0 0.1
2018-Apr-18 05:00N 35°36' E 139°47'0 0.0
2018-Apr-18 04:12N 35°36' E 139°47'0 0.0
2018-Apr-18 03:43N 35°36' E 139°47'0 0.0
2018-Apr-18 03:20N 35°36' E 139°47'0 0.2
2018-Apr-18 02:55N 35°36' E 139°47'0 0.1
2018-Apr-18 02:25N 35°36' E 139°47'0 0.0
2018-Apr-18 01:58N 35°36' E 139°47'0 0.1
2018-Apr-18 01:30N 35°36' E 139°47'4 7.2
2018-Apr-18 01:00N 35°34' E 139°50'612.2
2018-Apr-18 00:30N 35°28' E 139°50'713.9
2018-Apr-18 00:00N 35°22' E 139°45'611.9
2018-Apr-17 23:30N 35°16' E 139°46'612.8
2018-Apr-17 23:00N 35°10' E 139°45'714.2
2018-Apr-17 22:30N 35°04' E 139°40'814.9
2018-Apr-17 22:00N 34°59' E 139°33'714.8
2018-Apr-17 21:30N 34°54' E 139°27'714.2
2018-Apr-17 21:00N 34°49' E 139°20'1214.1
2018-Apr-17 20:11N 34°41' E 139°10'313.7
2018-Apr-17 19:56N 34°39' E 139°07'813.7
2018-Apr-17 19:19N 34°33' E 138°60'412.4
2018-Apr-17 19:00N 34°31' E 138°55'713.5
2018-Apr-17 18:30N 34°30' E 138°47'913.4
2018-Apr-17 17:51N 34°29' E 138°37'513.3
2018-Apr-17 17:30N 34°28' E 138°31'1913.5
2018-Apr-17 16:04N 34°26' E 138°08'213.8
2018-Apr-17 15:56N 34°25' E 138°06'  
2018-Apr-15 09:37N 31°04' E 122°57'215.3
2018-Apr-15 09:29N 31°05' E 122°55'2115.9
2018-Apr-15 08:09N 31°05' E 122°30'412.4
2018-Apr-15 07:52N 31°06' E 122°26'37 1.4
2018-Apr-14 06:01N 31°18' E 121°46'1 7.1
2018-Apr-14 05:51N 31°18' E 121°47'4 8.5
2018-Apr-14 05:23N 31°16' E 121°51'5 9.7
2018-Apr-14 04:50N 31°15' E 121°57'4 9.7
2018-Apr-14 04:23N 31°14' E 122°02'12 9.8
2018-Apr-14 03:13N 31°09' E 122°14'311.6
2018-Apr-14 03:00N 31°07' E 122°16'159 6.6
2018-Apr-13 02:57N 31°59' E 125°12'15015.7
2018-Apr-12 17:21N 32°59' E 127°56'615.5
2018-Apr-12 16:57N 33°02' E 128°03'1015.1
2018-Apr-12 16:17N 33°05' E 128°14'4415.4
2018-Apr-12 13:26N 33°22' E 129°02'1115.0
2018-Apr-12 12:41N 33°27' E 129°14'315.4
2018-Apr-12 12:30N 33°28' E 129°18'815.0
2018-Apr-12 11:59N 33°31' E 129°26'715.0
2018-Apr-12 11:30N 33°34' E 129°34'814.8
2018-Apr-12 11:00N 33°37' E 129°42'714.7
2018-Apr-12 10:30N 33°40' E 129°50'715.0
2018-Apr-12 10:00N 33°43' E 129°58'815.2
2018-Apr-12 09:28N 33°47' E 130°07'715.1
2018-Apr-12 09:00N 33°51' E 130°14'815.1
2018-Apr-12 08:30N 33°56' E 130°21'815.0
2018-Apr-12 08:00N 33°59' E 130°29'815.3
2018-Apr-12 07:30N 34°01' E 130°38'714.7
2018-Apr-12 07:00N 34°02' E 130°47'611.9
2018-Apr-12 06:30N 33°57' E 130°51'4 8.4
2018-Apr-12 06:00N 33°56' E 130°56'5 9.8
2018-Apr-12 05:30N 33°58' E 131°02'714.5
2018-Apr-12 05:00N 33°54' E 131°09'714.2
2018-Apr-12 04:31N 33°51' E 131°16'714.7
2018-Apr-12 04:00N 33°49' E 131°25'714.6
2018-Apr-12 03:31N 33°48' E 131°34'714.3
2018-Apr-12 03:00N 33°46' E 131°42'714.1
2018-Apr-12 02:30N 33°45' E 131°50'3214.9
2018-Apr-12 00:21N 33°52' E 132°28'815.0
2018-Apr-11 23:51N 33°55' E 132°37'713.7
2018-Apr-11 23:21N 33°59' E 132°43'7013.0
2018-Apr-11 17:57N 34°26' E 134°01'913.6
2018-Apr-11 17:16N 34°25' E 134°12'414.7
2018-Apr-11 17:00N 34°24' E 134°17'714.4
2018-Apr-11 16:31N 34°26' E 134°26'714.6
2018-Apr-11 16:00N 34°29' E 134°34'714.4
2018-Apr-11 15:30N 34°31' E 134°42'713.9
2018-Apr-11 15:00N 34°34' E 134°50'713.1
2018-Apr-11 14:30N 34°37' E 134°57'611.9
2018-Apr-11 14:00N 34°36' E 135°04'714.1
2018-Apr-11 13:30N 34°37' E 135°13'3 6.1
2018-Apr-11 13:00N 34°39' E 135°15'0 0.1
2018-Apr-11 12:25N 34°39' E 135°15'0 0.0
2018-Apr-11 12:01N 34°39' E 135°15'0 0.0
2018-Apr-11 11:30N 34°39' E 135°15'0 0.0
2018-Apr-11 11:00N 34°39' E 135°15'0 0.0
2018-Apr-11 10:30N 34°39' E 135°15'0 0.0
2018-Apr-11 10:00N 34°39' E 135°15'0 0.0
2018-Apr-11 09:29N 34°39' E 135°15'0 0.0
2018-Apr-11 08:59N 34°39' E 135°15'0 0.2
2018-Apr-11 08:30N 34°39' E 135°15'2 4.6
2018-Apr-11 08:00N 34°38' E 135°17'611.5
2018-Apr-11 07:30N 34°39' E 135°24'0 1.0
2018-Apr-11 07:00N 34°39' E 135°24'0 0.0
2018-Apr-11 06:24N 34°39' E 135°24'0 0.0
2018-Apr-11 05:57N 34°39' E 135°24'0 0.0
2018-Apr-11 05:30N 34°39' E 135°24'0 0.0
2018-Apr-11 05:00N 34°39' E 135°24'0 0.0
2018-Apr-11 04:26N 34°39' E 135°24'0 0.0
2018-Apr-11 03:59N 34°39' E 135°24'0 0.0
2018-Apr-11 03:29N 34°39' E 135°24'0 0.0
2018-Apr-11 02:59N 34°39' E 135°24'0 0.0
2018-Apr-11 02:28N 34°39' E 135°24'0 0.0
2018-Apr-11 01:58N 34°39' E 135°24'0 0.0
2018-Apr-11 01:28N 34°39' E 135°24'0 0.0
2018-Apr-11 00:58N 34°39' E 135°24'0 0.0
2018-Apr-11 00:28N 34°39' E 135°24'0 0.0
2018-Apr-11 00:00N 34°39' E 135°24'0 0.1
2018-Apr-10 23:30N 34°39' E 135°24'4 7.2
2018-Apr-10 23:00N 34°37' E 135°21'815.1
2018-Apr-10 22:30N 34°35' E 135°12'714.8
2018-Apr-10 22:01N 34°36' E 135°03'612.3
2018-Apr-10 21:30N 34°36' E 134°56'714.1
2018-Apr-10 21:00N 34°33' E 134°48'714.9
2018-Apr-10 20:30N 34°30' E 134°39'815.2
2018-Apr-10 20:01N 34°27' E 134°31'815.3
2018-Apr-10 19:30N 34°25' E 134°22'714.8
2018-Apr-10 19:00N 34°24' E 134°13'7313.3
2018-Apr-10 13:34N 34°04' E 132°49'215.5
2018-Apr-10 13:27N 34°02' E 132°48'715.5
2018-Apr-10 13:00N 33°57' E 132°42'815.5
2018-Apr-10 12:28N 33°53' E 132°34'715.6
2018-Apr-10 12:00N 33°51' E 132°25'916.0
2018-Apr-10 11:26N 33°50' E 132°14'815.4
2018-Apr-10 10:56N 33°47' E 132°06'715.8
2018-Apr-10 10:30N 33°45' E 131°58'815.6
2018-Apr-10 10:01N 33°45' E 131°48'816.0
2018-Apr-10 09:30N 33°46' E 131°39'815.8
2018-Apr-10 09:01N 33°48' E 131°30'815.4
2018-Apr-10 08:31N 33°50' E 131°21'814.9
2018-Apr-10 08:00N 33°51' E 131°12'714.9
2018-Apr-10 07:31N 33°56' E 131°05'612.3
2018-Apr-10 07:00N 33°58' E 130°57'4 8.8
2018-Apr-10 06:30N 33°55' E 130°53'713.5
2018-Apr-10 06:00N 34°01' E 130°49'714.3
2018-Apr-10 05:30N 34°02' E 130°41'815.8
2018-Apr-10 05:00N 33°59' E 130°32'816.3
2018-Apr-10 04:30N 33°56' E 130°23'816.2
2018-Apr-10 04:00N 33°52' E 130°14'816.3
2018-Apr-10 03:29N 33°47' E 130°06'816.4
2018-Apr-10 02:59N 33°43' E 129°57'  

Dump ship's entire track history